Time;durP1;ratioP1;P1;durP2;ratioP2;P2;SDS_P1;SDS_P2;PMS_P1;PMS_P2;Temp;Humidity;BMP_temperature;BMP_pressure;BME280_temperature;BME280_humidity;BME280_pressure;Samples;Min_cycle;Max_cycle;Signal;HPM_P1;HPM_P2
2021/04/07 00:01:41;;;;;;;3.22;2.30;;;;;;;22.84;39.45;93429.78;5010927;28;20017;-73
2021/04/07 00:04:06;;;;;;;4.22;2.70;;;;;;;22.81;39.37;93442.50;5028013;28;20053;-72
2021/04/07 00:06:34;;;;;;;3.22;2.70;;;;;;;22.80;39.35;93430.16;5028217;28;20033;-72
2021/04/07 00:09:03;;;;;;;2.80;2.20;;;;;;;22.82;39.39;93443.22;5043377;28;20462;-72
2021/04/07 00:11:28;;;;;;;3.25;2.22;;;;;;;22.79;39.57;93455.19;5043415;28;20021;-73
2021/04/07 00:13:54;;;;;;;3.20;2.30;;;;;;;22.77;39.36;93446.84;5028249;28;20038;-72
2021/04/07 00:16:19;;;;;;;2.95;2.22;;;;;;;22.75;39.45;93449.34;5028231;28;20037;-72
2021/04/07 00:18:45;;;;;;;3.15;2.08;;;;;;;22.76;39.29;93434.50;5026812;28;20029;-73
2021/04/07 00:21:10;;;;;;;3.53;2.30;;;;;;;22.71;39.26;93421.78;5028371;28;20025;-72
2021/04/07 00:23:36;;;;;;;2.85;2.30;;;;;;;22.62;39.55;93435.94;5027127;28;20521;-73
2021/04/07 00:26:01;;;;;;;2.45;2.20;;;;;;;22.73;39.35;93435.56;5027157;28;20026;-72
2021/04/07 00:28:27;;;;;;;3.50;2.50;;;;;;;22.73;39.32;93419.25;5027909;28;20395;-73
2021/04/07 00:30:52;;;;;;;3.30;2.38;;;;;;;22.70;39.56;93442.09;5027871;28;20025;-73
2021/04/07 00:33:18;;;;;;;3.58;2.50;;;;;;;22.60;39.27;93400.38;5027873;28;20390;-72
2021/04/07 00:35:43;;;;;;;2.60;2.20;;;;;;;22.69;39.61;93430.50;5010508;28;20406;-72
2021/04/07 00:38:11;;;;;;;3.92;2.42;;;;;;;22.58;39.67;93381.16;5029589;28;20457;-73
2021/04/07 00:40:37;;;;;;;3.65;2.53;;;;;;;22.66;39.65;93387.31;5030380;28;20116;-72
2021/04/07 00:43:02;;;;;;;3.40;2.35;;;;;;;22.67;39.54;93400.38;5031784;28;20494;-72
2021/04/07 00:45:28;;;;;;;2.97;2.30;;;;;;;22.66;39.58;93404.38;5030396;28;20026;-72
2021/04/07 00:47:54;;;;;;;3.33;2.50;;;;;;;22.64;39.62;93400.75;5031503;28;20034;-72
2021/04/07 00:50:21;;;;;;;2.70;2.25;;;;;;;22.63;39.52;93388.41;5030178;28;20017;-72
2021/04/07 00:52:47;;;;;;;2.83;2.15;;;;;;;22.61;39.73;93380.06;5031643;28;20032;-73
2021/04/07 00:55:13;;;;;;;3.58;2.40;;;;;;;22.61;39.64;93385.50;5029967;28;20033;-72
2021/04/07 00:57:40;;;;;;;2.85;2.30;;;;;;;22.61;39.72;93390.94;5031258;28;20018;-72
2021/04/07 01:00:06;;;;;;;3.03;2.10;;;;;;;22.59;39.44;93377.16;5031381;28;20022;-72
2021/04/07 01:02:32;;;;;;;2.92;2.30;;;;;;;22.53;39.63;93352.13;5029941;28;20044;-72
2021/04/07 01:04:57;;;;;;;2.83;2.20;;;;;;;22.59;39.47;93360.84;5013443;28;20045;-72
2021/04/07 01:07:23;;;;;;;2.80;2.20;;;;;;;22.58;39.72;93370.25;5046590;28;20037;-72
2021/04/07 01:09:48;;;;;;;3.50;2.33;;;;;;;22.36;39.82;93322.03;5046145;28;20033;-72
2021/04/07 01:12:14;;;;;;;3.13;2.10;;;;;;;22.54;39.47;93375.31;5013342;28;20021;-72
2021/04/07 01:14:39;;;;;;;2.55;2.30;;;;;;;22.57;39.65;93353.22;5031167;28;20021;-72
2021/04/07 01:17:05;;;;;;;3.20;2.20;;;;;;;22.54;39.82;93383.50;5030952;28;20449;-72
2021/04/07 01:19:31;;;;;;;2.53;1.90;;;;;;;22.52;39.66;93372.44;5013339;28;20025;-72
2021/04/07 01:21:56;;;;;;;3.38;2.30;;;;;;;22.49;39.80;93368.06;5030831;28;20033;-72
2021/04/07 01:24:22;;;;;;;2.80;2.15;;;;;;;22.49;39.57;93384.41;5029802;28;20017;-72
2021/04/07 01:26:48;;;;;;;3.35;2.25;;;;;;;22.34;39.46;93368.06;5030765;28;20084;-71
2021/04/07 01:29:14;;;;;;;3.72;2.50;;;;;;;22.52;39.70;93392.19;5029130;28;20026;-73
2021/04/07 01:31:45;;;;;;;3.05;2.33;;;;;;;22.53;39.71;93384.78;5029627;28;20463;-72
2021/04/07 01:34:19;;;;;;;3.17;2.53;;;;;;;22.45;39.54;93384.03;5046339;28;20029;-72
2021/04/07 01:36:44;;;;;;;2.92;2.08;;;;;;;22.44;39.71;93404.34;5029716;28;20034;-72
2021/04/07 01:39:09;;;;;;;2.75;2.10;;;;;;;22.46;39.74;93420.84;5030498;28;20021;-72
2021/04/07 01:41:35;;;;;;;3.05;2.50;;;;;;;22.40;39.51;93425.72;5012787;28;20037;-72
2021/04/07 01:44:01;;;;;;;2.58;2.08;;;;;;;22.38;39.53;93406.50;5028733;28;20023;-72
2021/04/07 01:46:26;;;;;;;3.20;2.33;;;;;;;22.44;39.44;93426.09;5029258;28;20461;-72
2021/04/07 01:48:52;;;;;;;3.15;2.28;;;;;;;22.44;39.81;93415.22;5012405;28;20033;-72
2021/04/07 01:51:17;;;;;;;2.28;2.00;;;;;;;22.31;39.69;93412.66;5045287;28;20036;-73
2021/04/07 01:53:43;;;;;;;2.90;2.20;;;;;;;22.43;39.55;93424.66;5029276;28;20033;-71
2021/04/07 01:56:09;;;;;;;3.00;2.30;;;;;;;22.42;39.85;93439.53;5030356;28;20071;-72
2021/04/07 01:58:35;;;;;;;2.92;2.03;;;;;;;22.41;39.68;93416.31;5030327;28;20013;-72
2021/04/07 02:01:00;;;;;;;2.92;2.35;;;;;;;22.41;39.81;93405.44;5029740;28;20501;-72
2021/04/07 02:03:26;;;;;;;2.95;2.40;;;;;;;22.42;39.84;93434.09;5029971;28;20520;-73
2021/04/07 02:05:51;;;;;;;3.35;2.10;;;;;;;22.35;39.62;93428.63;5030079;28;20025;-72
2021/04/07 02:08:17;;;;;;;2.80;2.30;;;;;;;22.38;39.87;93439.16;5029968;28;20136;-72
2021/04/07 02:10:42;;;;;;;2.72;2.00;;;;;;;22.37;39.69;93442.41;5030293;28;20037;-72
2021/04/07 02:13:08;;;;;;;2.92;2.22;;;;;;;22.37;39.76;93437.69;5045584;28;20076;-72
2021/04/07 02:15:33;;;;;;;2.80;2.20;;;;;;;22.37;39.81;93445.84;5029828;28;20024;-72
2021/04/07 02:17:59;;;;;;;2.50;2.20;;;;;;;22.36;39.76;93449.84;5030265;28;20033;-72
2021/04/07 02:20:24;;;;;;;2.55;2.17;;;;;;;22.37;39.67;93459.44;5031740;28;20067;-72
2021/04/07 02:22:51;;;;;;;2.65;2.10;;;;;;;22.35;39.79;93467.41;5033196;28;20022;-72
2021/04/07 02:25:16;;;;;;;2.92;2.15;;;;;;;22.33;39.71;93448.19;5033020;28;20025;-71
2021/04/07 02:27:42;;;;;;;3.85;2.10;;;;;;;22.34;39.68;93465.25;5033077;28;20033;-72
2021/04/07 02:30:09;;;;;;;3.25;2.33;;;;;;;22.33;39.70;93452.91;5031153;28;20025;-71
2021/04/07 02:32:35;;;;;;;2.42;1.90;;;;;;;22.31;39.85;93467.03;5030683;28;20025;-72
2021/04/07 02:35:00;;;;;;;3.00;2.10;;;;;;;22.29;39.63;93464.13;5029922;28;20036;-72
2021/04/07 02:37:26;;;;;;;2.97;2.30;;;;;;;22.29;39.74;93458.69;5028340;28;20087;-72
2021/04/07 02:39:51;;;;;;;2.85;2.05;;;;;;;22.29;39.72;93475.00;5028061;28;20116;-72
2021/04/07 02:42:20;;;;;;;2.85;2.40;;;;;;;22.27;39.67;93455.81;5029378;28;20037;-72
2021/04/07 02:44:46;;;;;;;2.20;1.90;;;;;;;22.27;39.36;93460.50;5029470;28;20029;-73
2021/04/07 02:47:11;;;;;;;3.38;2.20;;;;;;;22.23;39.65;93471.72;5029489;28;20037;-71
2021/04/07 02:49:37;;;;;;;3.00;2.00;;;;;;;22.25;39.88;93480.06;5027921;28;20030;-72
2021/04/07 02:52:03;;;;;;;2.97;2.30;;;;;;;22.24;39.68;93477.88;5028012;28;20493;-72
2021/04/07 02:54:28;;;;;;;2.33;1.95;;;;;;;22.20;39.72;93489.09;5028028;28;20486;-72
2021/04/07 02:56:54;;;;;;;2.75;2.20;;;;;;;22.23;39.78;93493.47;5029082;28;20087;-72
2021/04/07 02:59:19;;;;;;;2.80;2.25;;;;;;;22.21;39.72;93512.34;5029191;28;20037;-72
2021/04/07 03:01:45;;;;;;;2.95;2.13;;;;;;;22.21;39.75;93515.06;5027125;28;20033;-72
2021/04/07 03:04:10;;;;;;;2.78;2.03;;;;;;;22.21;39.67;93527.91;5027611;28;20532;-72
2021/04/07 03:06:36;;;;;;;3.05;2.28;;;;;;;22.21;39.79;93533.34;5020059;28;20042;-72
2021/04/07 03:09:01;;;;;;;2.75;2.17;;;;;;;22.14;39.70;93529.31;5009216;28;20103;-72
2021/04/07 03:11:27;;;;;;;2.78;2.30;;;;;;;22.19;39.77;93547.44;5013404;28;20013;-72
2021/04/07 03:13:53;;;;;;;2.70;2.13;;;;;;;22.17;39.83;93549.97;5028404;28;20025;-72
2021/04/07 03:16:18;;;;;;;3.00;2.40;;;;;;;22.17;39.74;93560.13;5026664;28;20025;-72
2021/04/07 03:18:44;;;;;;;3.33;2.50;;;;;;;22.13;39.78;93565.19;5028798;28;20022;-72
2021/04/07 03:21:09;;;;;;;2.30;2.00;;;;;;;22.06;39.83;93549.53;5028750;28;20032;-72
2021/04/07 03:23:35;;;;;;;3.08;2.30;;;;;;;22.13;39.75;93549.59;5027450;28;20033;-72
2021/04/07 03:26:00;;;;;;;2.10;1.90;;;;;;;22.12;39.64;93548.16;5028439;28;20028;-72
2021/04/07 03:28:26;;;;;;;3.15;2.33;;;;;;;22.14;39.75;93558.47;5030564;28;20033;-72
2021/04/07 03:30:51;;;;;;;3.15;2.28;;;;;;;22.10;39.69;93572.41;5030337;28;20039;-72
2021/04/07 03:33:24;;;;;;;3.00;2.00;;;;;;;22.10;39.75;93583.28;5028745;28;20052;-72
2021/04/07 03:35:51;;;;;;;2.72;2.17;;;;;;;22.09;39.90;93564.78;5028464;28;20029;-72
2021/04/07 03:38:16;;;;;;;2.70;2.10;;;;;;;22.10;39.82;93563.53;5028749;28;20060;-72
2021/04/07 03:40:42;;;;;;;2.45;1.85;;;;;;;22.08;39.71;93580.38;5028875;28;20487;-72
2021/04/07 03:43:11;;;;;;;3.03;2.40;;;;;;;22.08;39.87;93587.81;5028788;28;20108;-72
2021/04/07 03:45:40;;;;;;;3.00;2.20;;;;;;;21.97;39.71;93572.53;5027117;28;20021;-72
2021/04/07 03:48:11;;;;;;;2.85;2.20;;;;;;;22.05;39.87;93591.59;5028518;28;21027;-73
2021/04/07 03:50:38;;;;;;;3.90;2.50;;;;;;;21.98;39.73;93598.41;5028261;28;20033;-73
2021/04/07 03:53:03;;;;;;;2.58;2.08;;;;;;;22.04;39.71;93612.59;5022437;28;20034;-73
2021/04/07 03:55:29;;;;;;;2.47;2.00;;;;;;;22.12;39.77;93635.16;5014631;28;20095;-73
2021/04/07 03:57:54;;;;;;;3.75;2.40;;;;;;;22.19;39.88;93634.44;5040482;28;20020;-72
2021/04/07 04:00:20;;;;;;;2.78;2.05;;;;;;;22.25;39.72;93651.38;5041547;28;20013;-71
2021/04/07 04:02:45;;;;;;;3.22;2.00;;;;;;;22.33;39.59;93660.31;5039429;28;20399;-72
2021/04/07 04:05:11;;;;;;;2.10;1.83;;;;;;;22.41;39.44;93666.53;5059871;28;20045;-71
2021/04/07 04:07:37;;;;;;;2.50;1.80;;;;;;;22.50;39.34;93674.22;5037910;28;20032;-72
2021/04/07 04:10:02;;;;;;;2.53;1.65;;;;;;;22.58;39.23;93680.41;5042014;28;20505;-72
2021/04/07 04:12:28;;;;;;;2.55;1.80;;;;;;;22.64;38.70;93681.00;5039053;28;20025;-71
2021/04/07 04:14:53;;;;;;;3.50;1.83;;;;;;;22.76;38.85;93687.59;5048446;28;20032;-71
2021/04/07 04:17:19;;;;;;;2.85;2.05;;;;;;;22.85;38.80;93681.66;5041275;28;20024;-72
2021/04/07 04:19:44;;;;;;;2.88;1.92;;;;;;;22.88;38.70;93686.00;5043003;28;20013;-72
2021/04/07 04:22:10;;;;;;;2.72;1.70;;;;;;;23.05;38.40;93717.72;5029685;28;20021;-72
2021/04/07 04:24:35;;;;;;;2.38;1.63;;;;;;;23.16;38.17;93722.84;5031381;28;20535;-72
2021/04/07 04:27:01;;;;;;;1.90;1.70;;;;;;;23.28;37.89;93723.25;5034733;28;20039;-73
2021/04/07 04:29:26;;;;;;;2.70;1.70;;;;;;;23.39;37.76;93718.19;5045294;28;20033;-70
2021/04/07 04:31:52;;;;;;;2.00;1.58;;;;;;;23.48;37.79;93725.84;5027000;28;20033;-71
2021/04/07 04:34:17;;;;;;;2.28;1.60;;;;;;;23.57;37.69;93739.69;5031566;28;20044;-71
2021/04/07 04:36:43;;;;;;;2.35;1.80;;;;;;;23.68;37.45;93739.38;5025161;28;20036;-71
2021/04/07 04:39:08;;;;;;;2.38;1.70;;;;;;;23.79;36.74;93749.22;5029998;28;20030;-73
2021/04/07 04:41:34;;;;;;;2.28;1.75;;;;;;;23.86;37.51;93753.97;5027172;28;20029;-72
2021/04/07 04:43:59;;;;;;;2.63;1.75;;;;;;;23.87;37.35;93748.69;5031102;28;20025;-72
2021/04/07 04:46:25;;;;;;;2.45;1.75;;;;;;;24.04;37.22;93762.53;5024872;28;20446;-70
2021/04/07 04:48:50;;;;;;;2.58;1.70;;;;;;;24.15;36.79;93759.44;5031090;28;20048;-72
2021/04/07 04:51:16;;;;;;;2.78;1.60;;;;;;;24.22;36.53;93766.94;5025127;28;20521;-72
2021/04/07 04:53:41;;;;;;;2.00;1.60;;;;;;;24.34;36.20;93765.31;5034977;28;20029;-71
2021/04/07 04:56:06;;;;;;;1.90;1.40;;;;;;;24.40;36.71;93763.88;5026066;28;20026;-72
2021/04/07 04:58:32;;;;;;;2.20;1.60;;;;;;;24.44;36.37;93763.53;5024078;28;20026;-74
2021/04/07 05:00:58;;;;;;;2.00;1.60;;;;;;;24.64;36.17;93781.72;5027119;28;20031;-72
2021/04/07 05:03:23;;;;;;;2.17;1.55;;;;;;;24.68;35.91;93788.25;5043646;28;20442;-74
2021/04/07 05:05:49;;;;;;;2.78;1.70;;;;;;;24.69;35.75;93791.69;5030872;28;20414;-70
2021/04/07 05:08:14;;;;;;;2.25;1.48;;;;;;;24.75;35.74;93792.97;5029643;28;20079;-71
2021/04/07 05:10:40;;;;;;;2.00;1.58;;;;;;;24.88;35.49;93788.03;5038603;28;20119;-73
2021/04/07 05:13:05;;;;;;;1.85;1.45;;;;;;;24.91;35.48;93797.88;5042982;28;20048;-70
2021/04/07 05:15:31;;;;;;;1.70;1.52;;;;;;;24.97;35.12;93782.03;5039641;28;20017;-72
2021/04/07 05:17:56;;;;;;;1.92;1.42;;;;;;;24.97;35.39;93776.56;5038541;28;20022;-72
2021/04/07 05:20:22;;;;;;;1.48;1.30;;;;;;;25.09;35.42;93766.72;5040483;28;20086;-75
2021/04/07 05:22:47;;;;;;;2.08;1.20;;;;;;;25.14;35.12;93774.03;5047646;28;20409;-75
2021/04/07 05:25:13;;;;;;;1.60;1.20;;;;;;;25.18;34.76;93781.84;5047147;28;20468;-74
2021/04/07 05:27:38;;;;;;;1.95;1.40;;;;;;;25.19;34.82;93781.28;5037785;28;20112;-71
2021/04/07 05:30:04;;;;;;;2.17;1.60;;;;;;;25.17;34.91;93772.91;5047652;28;20239;-74
2021/04/07 05:32:30;;;;;;;1.75;1.40;;;;;;;25.25;34.93;93762.69;5036083;28;20506;-74
2021/04/07 05:34:55;;;;;;;2.20;1.50;;;;;;;25.28;34.89;93793.66;5046934;28;20028;-71
2021/04/07 05:37:21;;;;;;;1.98;1.30;;;;;;;25.36;34.46;93784.13;5036065;28;20033;-73
2021/04/07 05:39:46;;;;;;;1.92;1.48;;;;;;;25.45;34.47;93797.22;5045516;28;20028;-69
2021/04/07 05:42:12;;;;;;;1.63;1.33;;;;;;;25.46;34.73;93802.16;5036560;28;20022;-69
2021/04/07 05:44:37;;;;;;;1.75;1.17;;;;;;;25.55;34.16;93814.53;5045640;28;20036;-70
2021/04/07 05:47:03;;;;;;;1.70;1.30;;;;;;;25.53;34.47;93811.59;5040315;28;20441;-69
2021/04/07 05:49:28;;;;;;;1.70;1.27;;;;;;;25.60;33.98;93819.06;5033837;28;21972;-75
2021/04/07 05:51:54;;;;;;;1.75;1.20;;;;;;;25.48;34.34;93823.47;5025590;28;20517;-75
2021/04/07 05:54:20;;;;;;;1.40;1.05;;;;;;;25.35;34.08;93804.53;5035181;28;20020;-84
2021/04/07 05:56:45;;;;;;;1.50;1.20;;;;;;;25.41;34.51;93824.19;5035941;28;20491;-80
2021/04/07 05:59:11;;;;;;;2.03;1.10;;;;;;;25.36;34.27;93822.41;5040578;28;20014;-76
2021/04/07 06:01:36;;;;;;;1.90;1.30;;;;;;;25.57;34.20;93820.16;5039812;28;20506;-72
2021/04/07 06:04:02;;;;;;;1.88;1.17;;;;;;;25.54;33.96;93778.25;5028044;28;20046;-72
2021/04/07 06:06:28;;;;;;;2.63;1.13;;;;;;;25.55;34.02;93784.44;5033823;28;20501;-72
2021/04/07 06:08:53;;;;;;;3.22;1.02;;;;;;;25.64;33.69;93786.59;5033378;28;20033;-72
2021/04/07 06:11:19;;;;;;;1.35;1.10;;;;;;;25.72;33.78;93831.06;5042170;28;20533;-72
2021/04/07 06:13:45;;;;;;;1.83;1.10;;;;;;;25.82;33.45;93836.13;5029487;28;20063;-75
2021/04/07 06:16:10;;;;;;;2.58;1.13;;;;;;;25.84;33.82;93844.53;5026292;28;20049;-75
2021/04/07 06:18:36;;;;;;;1.67;1.10;;;;;;;25.88;33.59;93850.31;5043394;28;20056;-73
2021/04/07 06:21:01;;;;;;;2.80;1.15;;;;;;;25.94;33.70;93861.06;5046706;28;20029;-73
2021/04/07 06:23:27;;;;;;;1.67;1.05;;;;;;;25.92;33.81;93850.69;5036748;28;20406;-72
2021/04/07 06:25:52;;;;;;;2.13;1.10;;;;;;;26.03;33.30;93861.19;5025703;28;20021;-73
2021/04/07 06:28:18;;;;;;;1.85;1.00;;;;;;;25.97;33.54;93863.41;5036604;28;20029;-72
2021/04/07 06:30:46;;;;;;;1.80;1.00;;;;;;;25.95;33.34;93876.94;5040243;28;20025;-73
2021/04/07 06:33:17;;;;;;;1.90;1.02;;;;;;;25.92;33.42;93866.38;5032262;28;20032;-73
2021/04/07 06:35:47;;;;;;;1.25;0.90;;;;;;;25.94;33.15;93864.53;5028362;28;20042;-73
2021/04/07 06:38:13;;;;;;;1.23;0.80;;;;;;;25.97;33.15;93852.47;5024806;28;20021;-73
2021/04/07 06:40:38;;;;;;;1.00;0.80;;;;;;;25.98;33.25;93859.41;5038696;28;20037;-71
2021/04/07 06:43:04;;;;;;;1.55;1.02;;;;;;;26.00;33.18;93878.72;5039328;28;20024;-70
2021/04/07 06:45:30;;;;;;;1.27;0.93;;;;;;;26.03;33.10;93883.09;5046400;28;20035;-70
2021/04/07 06:47:56;;;;;;;1.77;1.00;;;;;;;25.93;33.01;93879.50;5044184;28;20103;-71
2021/04/07 06:50:22;;;;;;;1.95;1.00;;;;;;;25.94;32.83;93864.53;5027932;28;20655;-70
2021/04/07 06:52:47;;;;;;;1.20;0.82;;;;;;;26.13;32.77;93886.72;5013238;28;20029;-70
2021/04/07 06:55:17;;;;;;;1.70;1.30;;;;;;;26.13;32.84;93886.72;5025817;28;20021;-70
2021/04/07 06:57:46;;;;;;;;;;;;;;;26.10;32.72;93893.28;5008847;28;20111;-70
2021/04/07 07:00:14;;;;;;;1.60;1.00;;;;;;;26.21;33.12;93903.81;5028518;28;20009;-71
2021/04/07 07:02:40;;;;;;;1.40;0.90;;;;;;;26.17;33.00;93914.41;5019508;28;20030;-70
2021/04/07 07:05:06;;;;;;;1.58;1.00;;;;;;;26.20;32.46;93921.50;5026689;28;20054;-71
2021/04/07 07:07:32;;;;;;;1.70;1.02;;;;;;;26.15;32.80;93927.91;5026340;28;20434;-71
2021/04/07 07:09:57;;;;;;;1.85;0.88;;;;;;;26.21;32.37;93931.19;5034979;28;20029;-71
2021/04/07 07:12:23;;;;;;;1.52;0.93;;;;;;;26.24;32.17;93913.66;5024612;28;20430;-71
2021/04/07 07:14:49;;;;;;;2.28;1.00;;;;;;;26.24;32.37;93919.13;5026681;28;20064;-71
2021/04/07 07:17:25;;;;;;;2.03;1.00;;;;;;;26.32;32.38;93925.31;5007680;28;20071;-71
2021/04/07 07:19:50;;;;;;;1.45;0.90;;;;;;;26.28;32.40;93925.00;5042527;28;20494;-71
2021/04/07 07:22:20;;;;;;;1.88;1.05;;;;;;;26.30;32.23;93923.13;5039359;28;20028;-70
2021/04/07 07:24:49;;;;;;;1.60;0.73;;;;;;;26.35;32.21;93929.69;5039733;28;20029;-72
2021/04/07 07:27:15;;;;;;;1.80;1.00;;;;;;;26.47;32.29;93922.50;5010271;28;20134;-73
2021/04/07 07:29:40;;;;;;;2.17;0.73;;;;;;;26.53;31.83;93942.19;5023322;28;20498;-74
2021/04/07 07:32:07;;;;;;;1.75;0.88;;;;;;;26.49;32.06;93939.13;5023600;28;20029;-77
2021/04/07 07:34:33;;;;;;;2.35;0.80;;;;;;;26.41;32.52;93938.41;5024295;28;20123;-72
2021/04/07 07:37:00;;;;;;;1.80;1.00;;;;;;;26.42;32.33;93945.34;5023397;28;20040;-71
2021/04/07 07:39:26;;;;;;;1.55;1.05;;;;;;;26.36;32.67;93942.09;5028093;28;20017;-71
2021/04/07 07:41:55;;;;;;;2.30;1.10;;;;;;;26.25;32.67;93942.50;5018730;28;20060;-71
2021/04/07 07:44:21;;;;;;;3.47;1.05;;;;;;;26.21;32.66;93964.03;5025839;28;20021;-71
2021/04/07 07:46:48;;;;;;;2.97;1.23;;;;;;;26.17;32.71;93952.72;5007128;28;20079;-70
2021/04/07 07:49:18;;;;;;;1.55;1.00;;;;;;;26.07;32.81;93971.00;5029275;28;20032;-70
2021/04/07 07:51:45;;;;;;;1.40;0.80;;;;;;;26.00;32.95;93962.81;5023202;28;20107;-71
2021/04/07 07:54:18;;;;;;;1.70;0.90;;;;;;;25.69;33.07;93947.03;5045286;28;20044;-71
2021/04/07 07:56:44;;;;;;;1.42;1.05;;;;;;;25.65;33.44;93974.00;5024134;28;20025;-71
2021/04/07 07:59:09;;;;;;;1.58;0.98;;;;;;;25.44;33.86;93970.72;5030657;28;20021;-71
2021/04/07 08:01:45;;;;;;;2.10;0.70;;;;;;;25.39;33.60;93980.56;5025116;28;20021;-71
2021/04/07 08:04:10;;;;;;;3.08;1.52;;;;;;;25.35;33.82;93995.84;5030085;28;20049;-71
2021/04/07 08:06:36;;;;;;;2.95;1.27;;;;;;;25.34;33.72;93988.97;5028143;28;20437;-70
2021/04/07 08:09:03;;;;;;;1.83;1.13;;;;;;;25.43;34.10;93999.34;5039410;28;20418;-71
2021/04/07 08:11:28;;;;;;;3.83;1.15;;;;;;;25.44;33.95;93981.66;5028433;28;20031;-71
2021/04/07 08:13:54;;;;;;;2.50;1.40;;;;;;;25.40;33.58;93978.56;5032018;28;20034;-71
2021/04/07 08:16:20;;;;;;;2.17;1.00;;;;;;;25.48;33.51;93971.09;5039880;28;20033;-71
2021/04/07 08:18:46;;;;;;;1.50;0.80;;;;;;;25.47;33.68;93975.09;5021735;28;20028;-71
2021/04/07 08:21:21;;;;;;;2.45;1.20;;;;;;;25.42;33.46;93973.28;5029314;28;20452;-71
2021/04/07 08:23:53;;;;;;;1.90;1.13;;;;;;;25.36;33.63;93980.94;5038345;28;20425;-71
2021/04/07 08:26:18;;;;;;;2.35;0.98;;;;;;;25.26;33.78;93993.69;5028507;28;20029;-71
2021/04/07 08:28:43;;;;;;;3.17;1.00;;;;;;;25.24;33.89;93996.22;5028080;28;20033;-71
2021/04/07 08:31:13;;;;;;;2.55;0.90;;;;;;;25.13;34.12;94002.06;5042237;28;20030;-71
2021/04/07 08:33:38;;;;;;;1.55;1.10;;;;;;;25.15;33.99;93999.50;5027718;28;20033;-71
2021/04/07 08:36:04;;;;;;;1.83;1.00;;;;;;;25.19;33.92;94016.28;5048316;28;20449;-71
2021/04/07 08:38:30;;;;;;;3.85;1.30;;;;;;;25.11;34.25;94012.81;5042599;28;20021;-71
2021/04/07 08:41:19;;;;;;;3.03;1.17;;;;;;;25.10;34.04;94014.06;5035309;28;20607;-71
2021/04/07 08:43:45;;;;;;;1.67;1.05;;;;;;;25.04;34.06;94004.59;5020758;28;20128;-71
2021/04/07 08:46:19;;;;;;;2.08;1.05;;;;;;;25.00;34.57;94007.66;5030520;28;20497;-71
2021/04/07 08:48:45;;;;;;;1.65;1.20;;;;;;;24.94;34.43;93990.69;5029913;28;20037;-71
2021/04/07 08:51:14;;;;;;;2.05;0.98;;;;;;;24.93;34.47;93994.72;5031472;28;20029;-70
2021/04/07 08:53:41;;;;;;;5.03;1.35;;;;;;;24.92;34.48;94004.19;5029314;28;20033;-70
2021/04/07 08:56:08;;;;;;;5.22;1.40;;;;;;;24.87;34.32;94032.41;5031573;28;20041;-70
2021/04/07 08:58:34;;;;;;;2.17;1.02;;;;;;;24.88;34.59;94052.94;5031522;28;20037;-70
2021/04/07 09:00:59;;;;;;;4.05;1.40;;;;;;;24.73;34.62;94035.06;5026704;28;20538;-71
2021/04/07 09:03:27;;;;;;;2.47;1.40;;;;;;;24.81;34.38;94047.47;5029962;28;20056;-70
2021/04/07 09:05:52;;;;;;;2.55;1.23;;;;;;;24.63;34.67;94031.41;5047583;28;20037;-71
2021/04/07 09:08:18;;;;;;;1.92;1.10;;;;;;;24.79;34.47;94050.03;5022191;28;20033;-70
2021/04/07 09:10:48;;;;;;;2.15;1.10;;;;;;;24.77;34.94;94068.19;5033045;28;20490;-70
2021/04/07 09:13:26;;;;;;;2.10;1.00;;;;;;;24.74;34.79;94058.38;5021743;28;20048;-70
2021/04/07 09:16:03;;;;;;;2.67;1.10;;;;;;;24.82;35.13;94063.31;5049206;28;20120;-70
2021/04/07 09:18:39;;;;;;;3.05;0.90;;;;;;;24.87;34.70;94070.63;5029085;28;20052;-71
2021/04/07 09:21:09;;;;;;;1.50;0.93;;;;;;;24.88;34.94;94052.94;5030086;28;20049;-70
2021/04/07 09:23:36;;;;;;;2.30;1.20;;;;;;;24.97;35.03;94038.06;5036859;28;20045;-70
2021/04/07 09:26:12;;;;;;;1.92;1.05;;;;;;;24.98;34.77;94045.72;5038428;28;20516;-71
2021/04/07 09:28:50;;;;;;;1.88;0.95;;;;;;;25.06;34.82;94062.88;5024158;28;20025;-70
2021/04/07 09:31:23;;;;;;;2.63;1.20;;;;;;;25.16;34.59;94066.53;5030215;28;20017;-69
2021/04/07 09:33:50;;;;;;;1.75;1.00;;;;;;;25.23;34.89;94079.50;4987355;28;20041;-71
2021/04/07 09:36:25;;;;;;;2.55;1.10;;;;;;;25.26;35.11;94072.94;5049125;28;20026;-71
2021/04/07 09:38:51;;;;;;;2.25;1.10;;;;;;;25.37;34.67;94092.44;5040224;28;20151;-69
2021/04/07 09:41:25;;;;;;;3.60;1.20;;;;;;;25.44;34.68;94101.94;5046886;28;20025;-69
2021/04/07 09:43:51;;;;;;;3.00;1.10;;;;;;;25.54;34.52;94106.31;5039620;28;20413;-71
2021/04/07 09:46:16;;;;;;;2.40;0.93;;;;;;;25.60;34.71;94098.66;5044675;28;20029;-69
2021/04/07 09:48:49;;;;;;;2.85;1.05;;;;;;;25.63;34.59;94107.78;5026111;28;20084;-71
2021/04/07 09:51:18;;;;;;;9.38;1.45;;;;;;;25.74;34.38;94102.00;5029168;28;20516;-73
2021/04/07 09:53:43;;;;;;;3.72;1.27;;;;;;;25.77;34.47;94100.91;5030875;28;20048;-71
2021/04/07 09:56:09;;;;;;;3.65;1.30;;;;;;;25.75;34.35;94103.47;5045583;28;20030;-72
2021/04/07 09:58:48;;;;;;;2.03;1.00;;;;;;;25.75;34.94;94103.47;5034205;28;20031;-72
2021/04/07 10:01:17;;;;;;;3.47;1.17;;;;;;;25.62;34.86;94095.38;5024115;28;20103;-72
2021/04/07 10:04:04;;;;;;;2.67;1.03;;;;;;;25.87;34.71;94116.97;5022666;28;20410;-71
2021/04/07 10:06:30;;;;;;;3.90;0.95;;;;;;;25.94;34.51;94121.69;5029342;28;20264;-72
2021/04/07 10:09:01;;;;;;;1.98;1.10;;;;;;;25.98;34.46;94111.13;5021203;28;20044;-72
2021/04/07 10:11:26;;;;;;;2.80;1.02;;;;;;;26.09;34.41;94110.75;5028882;28;20033;-74
2021/04/07 10:13:53;;;;;;;1.92;1.02;;;;;;;26.04;34.06;94108.22;5036308;28;20024;-76
2021/04/07 10:16:20;;;;;;;2.70;0.90;;;;;;;26.07;34.24;94113.31;5046096;28;20021;-77
2021/04/07 10:18:45;;;;;;;3.08;0.95;;;;;;;26.11;34.05;94119.13;5033586;28;20057;-75
2021/04/07 10:21:19;;;;;;;2.80;1.10;;;;;;;26.11;34.27;94113.66;5011266;28;20025;-73
2021/04/07 10:23:46;;;;;;;2.53;1.85;;;;;;;25.84;31.39;94123.53;5028265;28;20025;-74
2021/04/07 10:26:12;;;;;;;3.13;2.00;;;;;;;25.27;26.12;94129.03;5042774;28;20021;-76
2021/04/07 10:28:37;;;;;;;2.60;1.50;;;;;;;25.10;30.60;94117.91;5040075;28;20106;-76
2021/04/07 10:31:12;;;;;;;1.80;1.40;;;;;;;25.34;32.66;94109.22;4994874;28;20037;-77
2021/04/07 10:33:38;;;;;;;2.95;1.42;;;;;;;25.71;33.44;94135.91;5026024;28;20469;-76
2021/04/07 10:36:04;;;;;;;4.20;1.50;;;;;;;25.89;33.03;94130.81;5044119;28;20030;-74
2021/04/07 10:38:33;;;;;;;2.88;1.30;;;;;;;26.08;33.43;94131.16;5026094;28;20021;-74
2021/04/07 10:41:00;;;;;;;2.80;1.17;;;;;;;26.01;33.62;94126.44;5028364;28;20060;-74
2021/04/07 10:43:35;;;;;;;3.08;1.50;;;;;;;26.12;33.59;94137.00;5027015;28;20029;-75
2021/04/07 10:46:04;;;;;;;2.22;1.40;;;;;;;26.19;33.50;94135.53;5027040;28;20068;-74
2021/04/07 10:48:30;;;;;;;2.13;1.37;;;;;;;26.17;33.18;94111.47;5020271;28;20032;-74
2021/04/07 10:50:57;;;;;;;2.58;1.42;;;;;;;26.30;33.51;94114.75;5038172;28;20537;-75
2021/04/07 10:53:33;;;;;;;2.05;1.40;;;;;;;26.36;33.26;94118.03;5042144;28;20025;-77
2021/04/07 10:55:59;;;;;;;1.98;1.35;;;;;;;26.46;33.11;94137.38;5046720;28;20036;-77
2021/04/07 10:58:26;;;;;;;3.20;1.40;;;;;;;26.40;33.16;94128.63;5045517;28;20032;-77
2021/04/07 11:00:52;;;;;;;3.40;1.42;;;;;;;26.46;32.91;94143.59;5046020;28;20009;-77
2021/04/07 11:03:17;;;;;;;3.50;1.50;;;;;;;26.60;32.93;94157.78;5041269;28;20180;-78
2021/04/07 11:05:46;;;;;;;2.78;1.42;;;;;;;26.60;33.00;94146.84;5043069;28;20083;-79
2021/04/07 11:08:13;;;;;;;2.17;1.33;;;;;;;26.63;32.88;94145.75;5041606;28;20032;-77
2021/04/07 11:10:49;;;;;;;2.88;1.30;;;;;;;26.70;32.68;94140.25;5047784;28;20025;-80
2021/04/07 11:13:16;;;;;;;3.35;1.60;;;;;;;26.69;32.55;94127.09;5029236;28;20476;-82
2021/04/07 11:15:42;;;;;;;2.75;1.55;;;;;;;26.78;32.60;94147.16;5028557;28;20041;-77
2021/04/07 11:18:08;;;;;;;3.80;1.55;;;;;;;26.76;32.62;94151.00;5042302;28;20540;-77
2021/04/07 11:20:33;;;;;;;5.03;1.48;;;;;;;26.71;32.45;94135.47;5036729;28;20028;-76
2021/04/07 11:22:59;;;;;;;3.88;1.80;;;;;;;26.76;32.82;94144.25;5015159;28;20052;-77
2021/04/07 11:25:26;;;;;;;3.55;1.73;;;;;;;26.80;32.64;94133.66;5043416;28;20056;-77
2021/04/07 11:27:52;;;;;;;2.80;1.50;;;;;;;26.83;32.54;94129.78;5045425;28;20088;-77
2021/04/07 11:30:18;;;;;;;3.05;1.70;;;;;;;26.90;32.44;94137.28;5026249;28;20025;-73
2021/04/07 11:32:50;;;;;;;3.65;1.73;;;;;;;26.77;32.66;94134.75;5038092;28;20078;-73